Time;durP1;ratioP1;P1;durP2;ratioP2;P2;SDS_P1;SDS_P2;PMS_P1;PMS_P2;Temp;Humidity;BMP_temperature;BMP_pressure;BME280_temperature;BME280_humidity;BME280_pressure;Samples;Min_cycle;Max_cycle;Signal;HPM_P1;HPM_P2
2021/01/18 08:19:24;;;;;;;32.78;8.60;;;;;;;7.17;69.82;102324.06;5059422;28;20986;-80
2021/01/18 08:22:00;;;;;;;26.88;7.38;;;;;;;7.16;70.74;102321.41;5048352;28;20055;-77
2021/01/18 08:27:08;;;;;;;31.15;7.72;;;;;;;7.08;70.28;102319.53;5055008;28;20415;-79
2021/01/18 08:38:09;;;;;;;30.42;10.50;;;;;;;7.26;69.96;102324.25;5109392;27;20355;-79
2021/01/18 08:43:22;;;;;;;26.63;6.82;;;;;;;7.24;70.40;102325.06;5103845;27;20388;-78
2021/01/18 08:45:53;;;;;;;24.30;6.82;;;;;;;7.24;70.68;102325.06;5087531;28;20043;-79
2021/01/18 08:48:21;;;;;;;24.30;7.50;;;;;;;7.27;70.58;102318.09;5088571;28;20028;-78
2021/01/18 08:53:43;;;;;;;30.58;6.88;;;;;;;7.39;70.30;102311.25;5086476;27;20411;-80
2021/01/18 08:59:15;;;;;;;29.92;6.80;;;;;;;7.32;70.96;102310.28;5072755;28;20174;-80
2021/01/18 09:01:41;;;;;;;32.15;7.03;;;;;;;7.39;70.28;102304.25;5064941;28;20028;-79
2021/01/18 09:04:07;;;;;;;30.38;7.60;;;;;;;7.41;70.11;102307.81;5061632;28;20033;-79
2021/01/18 09:06:35;;;;;;;19.85;6.10;;;;;;;7.35;70.68;102301.53;5056321;28;20032;-80
2021/01/18 09:09:03;;;;;;;24.80;6.30;;;;;;;7.41;70.46;102301.63;5057003;28;20053;-80
2021/01/18 09:11:29;;;;;;;25.20;5.68;;;;;;;7.36;70.88;102291.00;5050748;28;20036;-79
2021/01/18 09:13:55;;;;;;;25.45;5.97;;;;;;;7.34;70.78;102281.28;5050192;28;20465;-79
2021/01/18 09:16:22;;;;;;;23.15;6.03;;;;;;;7.39;70.43;102280.53;5063138;28;20057;-80
2021/01/18 09:18:48;;;;;;;27.50;6.07;;;;;;;7.59;70.09;102287.88;5050093;28;20037;-80
2021/01/18 09:21:17;;;;;;;25.75;6.20;;;;;;;7.71;69.49;102277.50;5050496;28;20112;-79
2021/01/18 09:23:44;;;;;;;25.48;6.97;;;;;;;7.91;69.07;102284.81;5049822;28;20128;-79
2021/01/18 09:26:12;;;;;;;25.67;6.25;;;;;;;7.69;69.38;102276.59;5047087;28;20473;-79
2021/01/18 09:28:40;;;;;;;19.15;6.07;;;;;;;7.59;70.00;102279.97;5040596;28;20025;-79
2021/01/18 09:31:09;;;;;;;25.70;6.63;;;;;;;7.66;69.74;102273.88;5030279;28;20034;-81
2021/01/18 09:33:36;;;;;;;30.20;8.75;;;;;;;7.58;70.16;102276.41;5030157;28;20121;-79
2021/01/18 09:36:03;;;;;;;26.58;7.15;;;;;;;7.73;70.07;102270.47;5033004;28;20041;-80
2021/01/18 09:38:30;;;;;;;20.58;6.05;;;;;;;7.63;69.78;102260.66;5042842;28;20033;-78
2021/01/18 09:40:56;;;;;;;17.02;5.60;;;;;;;7.60;70.28;102263.25;5044169;28;20056;-78
2021/01/18 09:43:22;;;;;;;30.05;5.93;;;;;;;7.72;69.77;102260.78;5046324;28;20380;-79
2021/01/18 09:45:56;;;;;;;27.45;5.65;;;;;;;7.50;70.38;102258.69;5049726;28;20485;-79
2021/01/18 09:48:25;;;;;;;30.42;6.05;;;;;;;8.03;68.56;102258.59;5048451;28;20384;-79
2021/01/18 09:50:58;;;;;;;14.55;5.20;;;;;;;8.20;68.13;102257.91;5049876;28;20384;-81
2021/01/18 09:53:26;;;;;;;26.42;4.93;;;;;;;8.21;68.51;102259.69;5049820;28;20048;-80
2021/01/18 09:55:53;;;;;;;25.33;5.65;;;;;;;8.07;68.43;102256.88;5049925;28;20025;-78
2021/01/18 09:58:25;;;;;;;19.48;4.75;;;;;;;8.26;67.79;102257.97;5048688;28;20045;-80
2021/01/18 10:00:53;;;;;;;29.08;5.63;;;;;;;8.16;67.86;102253.47;5048556;28;20060;-78
2021/01/18 10:03:40;;;;;;;20.33;5.43;;;;;;;8.07;68.87;102249.84;5049401;28;20548;-77
2021/01/18 10:08:51;;;;;;;17.45;5.10;;;;;;;7.87;69.46;102248.69;5023821;27;1749525;-78
2021/01/18 10:11:34;;;;;;;24.65;5.18;;;;;;;7.94;69.29;102259.34;5090966;28;20051;-79
2021/01/18 10:14:01;;;;;;;;;;;;;;;7.80;69.41;102250.38;5082252;28;20035;-76
2021/01/18 10:16:27;;;;;;;22.65;5.55;;;;;;;7.92;69.18;102253.19;5070720;28;19912;-78
2021/01/18 10:18:53;;;;;;;23.00;5.28;;;;;;;7.90;69.22;102264.56;5070491;28;20449;-75
2021/01/18 10:21:33;;;;;;;20.30;4.95;;;;;;;7.96;68.97;102263.75;5068652;28;20043;-79
2021/01/18 10:23:59;;;;;;;18.63;5.00;;;;;;;7.86;69.47;102262.75;5050269;28;20055;-79
2021/01/18 10:26:34;;;;;;;22.05;5.45;;;;;;;7.89;69.46;102252.25;5050748;28;20025;-79
2021/01/18 10:29:03;;;;;;;24.65;8.93;;;;;;;8.26;68.33;102263.25;5065478;28;20098;-79
2021/01/18 10:31:32;;;;;;;26.73;6.00;;;;;;;8.14;68.63;102249.91;5056387;28;20065;-80
2021/01/18 10:37:13;;;;;;;16.33;5.43;;;;;;;8.13;68.64;102246.41;5067666;28;20404;-78
2021/01/18 10:39:42;;;;;;;19.40;4.32;;;;;;;8.06;68.59;102244.53;5043711;28;20029;-78
2021/01/18 10:47:35;;;;;;;13.18;4.20;;;;;;;8.19;68.38;102245.59;5112121;27;20571;-79
2021/01/18 10:50:02;;;;;;;22.58;4.75;;;;;;;8.32;67.99;102231.66;5108700;28;20369;-80
2021/01/18 10:52:40;;;;;;;23.10;4.72;;;;;;;8.18;68.64;102239.41;5106991;28;20030;-80
2021/01/18 10:55:07;;;;;;;19.52;4.50;;;;;;;8.38;67.61;102226.44;5090934;28;20538;-77
2021/01/18 10:57:39;;;;;;;17.10;4.20;;;;;;;8.38;67.62;102220.28;5097297;28;20024;-79
2021/01/18 11:05:39;;;;;;;27.40;5.20;;;;;;;8.44;67.72;102212.44;5090189;27;20356;-78
2021/01/18 11:08:08;;;;;;;20.05;6.00;;;;;;;8.62;67.91;102214.41;5089560;28;20103;-77
2021/01/18 11:10:39;;;;;;;22.50;4.53;;;;;;;8.70;67.53;102212.72;5086389;28;20115;-82
2021/01/18 11:13:10;;;;;;;15.32;4.15;;;;;;;8.57;67.97;102216.13;5082798;28;20024;-78
2021/01/18 11:15:41;;;;;;;22.73;6.05;;;;;;;8.55;67.51;102207.31;5080656;28;20157;-79
2021/01/18 11:18:10;;;;;;;17.63;3.28;;;;;;;8.80;67.00;102211.06;5076763;28;20028;-82
2021/01/18 11:20:37;;;;;;;18.10;4.53;;;;;;;8.70;67.10;102215.38;5075974;28;20029;-82
2021/01/18 11:23:09;;;;;;;18.08;3.78;;;;;;;8.78;67.03;102214.56;5078259;28;20402;-78
2021/01/18 11:25:36;;;;;;;17.60;3.67;;;;;;;8.93;66.34;102212.06;5079116;28;20036;-80
2021/01/18 11:28:19;;;;;;;26.63;4.78;;;;;;;8.85;66.22;102213.75;5082347;28;20429;-78
2021/01/18 11:30:45;;;;;;;21.83;4.60;;;;;;;8.76;66.04;102213.66;5086276;28;20021;-79
2021/01/18 11:33:12;;;;;;;19.80;4.20;;;;;;;8.72;66.54;102211.00;5077773;28;20090;-89
2021/01/18 11:35:40;;;;;;;19.75;4.85;;;;;;;8.97;65.52;102210.31;5079046;28;20395;-79
2021/01/18 11:38:06;;;;;;;21.67;3.83;;;;;;;8.68;65.86;102232.97;5079203;28;20029;-78
2021/01/18 11:40:33;;;;;;;21.90;7.22;;;;;;;8.77;65.91;102218.94;5078701;28;20415;-80
2021/01/18 11:43:00;;;;;;;21.30;6.78;;;;;;;8.91;65.47;102216.47;5077281;28;20028;-79
2021/01/18 11:45:27;;;;;;;24.27;5.03;;;;;;;8.81;65.74;102209.28;5080570;28;20028;-77
2021/01/18 11:47:54;;;;;;;16.95;4.47;;;;;;;9.09;64.23;102201.63;5078287;28;20029;-79
2021/01/18 11:50:21;;;;;;;30.17;5.50;;;;;;;9.37;63.43;102203.59;5076062;28;20024;-79
2021/01/18 11:52:48;;;;;;;18.63;3.72;;;;;;;9.04;64.81;102205.09;5078810;28;20511;-79
2021/01/18 11:55:16;;;;;;;18.85;4.57;;;;;;;8.92;65.41;102202.34;5078930;28;20029;-79
2021/01/18 11:57:44;;;;;;;17.52;5.25;;;;;;;8.95;65.44;102197.09;5086736;28;20414;-79
2021/01/18 12:00:12;;;;;;;17.30;4.10;;;;;;;9.01;65.04;102199.78;5075302;28;20501;-78
2021/01/18 12:02:40;;;;;;;15.93;3.30;;;;;;;9.38;64.84;102192.16;5073106;28;20040;-79
2021/01/18 12:05:09;;;;;;;24.55;3.67;;;;;;;9.37;64.74;102190.38;5073612;28;20048;-81
2021/01/18 12:07:35;;;;;;;12.73;3.53;;;;;;;9.61;63.92;102183.47;5075923;28;20036;-88
2021/01/18 12:10:04;;;;;;;21.85;2.95;;;;;;;9.74;63.42;102181.75;5078008;28;20375;-86
2021/01/18 12:12:33;;;;;;;17.05;3.08;;;;;;;9.78;62.99;102193.25;5079153;28;20071;-77
2021/01/18 12:14:59;;;;;;;18.73;3.40;;;;;;;9.56;63.05;102185.19;5076486;28;20438;-79
2021/01/18 12:17:25;;;;;;;15.25;3.47;;;;;;;9.64;62.82;102170.22;5067089;28;20117;-77
2021/01/18 12:19:52;;;;;;;16.48;3.58;;;;;;;9.51;63.37;102171.06;5066473;28;20036;-78
2021/01/18 12:22:18;;;;;;;18.17;3.55;;;;;;;9.77;62.64;102159.69;5066544;28;20073;-78
2021/01/18 12:24:44;;;;;;;18.10;2.70;;;;;;;9.45;63.40;102176.31;5062621;28;20060;-79
2021/01/18 12:27:11;;;;;;;18.17;3.15;;;;;;;9.39;63.92;102156.88;5056033;28;20383;-79
2021/01/18 12:29:37;;;;;;;46.35;18.17;;;;;;;9.49;63.16;102163.09;5055838;28;20084;-79
2021/01/18 12:32:04;;;;;;;15.23;2.85;;;;;;;9.13;64.74;102153.16;5064004;28;20036;-79
2021/01/18 12:34:30;;;;;;;15.38;3.13;;;;;;;9.35;63.88;102147.13;5066251;28;20025;-78
2021/01/18 12:36:57;;;;;;;14.30;2.88;;;;;;;9.35;64.11;102149.78;5065020;28;20017;-78
2021/01/18 12:39:23;;;;;;;19.13;3.53;;;;;;;9.27;64.23;102151.53;5063870;28;20475;-79
2021/01/18 12:41:49;;;;;;;22.13;3.13;;;;;;;9.14;64.91;102149.66;5058138;28;20025;-79
2021/01/18 12:44:16;;;;;;;17.33;3.53;;;;;;;9.22;64.54;102148.84;5055258;28;20067;-79
2021/01/18 12:46:42;;;;;;;15.95;3.58;;;;;;;9.42;64.33;102152.47;5063407;28;20080;-78
2021/01/18 12:49:09;;;;;;;12.07;2.95;;;;;;;9.48;64.13;102134.88;5064783;28;20029;-77
2021/01/18 12:51:35;;;;;;;19.60;2.92;;;;;;;9.50;63.74;102143.69;5061588;28;20404;-80
2021/01/18 12:54:01;;;;;;;18.33;3.42;;;;;;;9.37;63.96;102132.19;5063274;28;20032;-79
2021/01/18 12:56:28;;;;;;;13.63;3.03;;;;;;;9.46;63.52;102125.16;5062618;28;20139;-80
2021/01/18 12:58:56;;;;;;;15.65;3.33;;;;;;;9.54;63.40;102128.72;5060768;28;20484;-77
2021/01/18 13:01:34;;;;;;;18.00;3.28;;;;;;;9.43;63.46;102130.44;5062345;28;20391;-78
2021/01/18 13:04:01;;;;;;;17.55;4.25;;;;;;;9.69;63.07;102122.63;5067138;28;20059;-78
2021/01/18 13:06:46;;;;;;;18.20;2.83;;;;;;;9.36;62.81;102125.09;5063929;28;20033;-76
2021/01/18 13:09:15;;;;;;;12.27;2.40;;;;;;;9.35;63.51;102128.63;5064062;28;20027;-78
2021/01/18 13:11:46;;;;;;;10.48;2.75;;;;;;;9.58;62.90;102119.91;5064913;28;20032;-79
2021/01/18 13:14:13;;;;;;;12.27;2.58;;;;;;;9.59;62.84;102111.09;5075446;28;20383;-78
2021/01/18 13:16:39;;;;;;;15.13;2.45;;;;;;;9.80;62.44;102104.16;5070031;28;20081;-77
2021/01/18 13:19:06;;;;;;;21.75;3.30;;;;;;;9.60;62.79;102107.59;5061826;28;20167;-81
2021/01/18 13:21:32;;;;;;;20.88;3.80;;;;;;;9.64;62.07;102108.50;5061477;28;20056;-78
2021/01/18 13:23:58;;;;;;;14.23;3.45;;;;;;;9.63;62.51;102127.88;5063065;28;20029;-77
2021/01/18 13:26:25;;;;;;;13.27;2.50;;;;;;;9.30;63.58;102122.44;5062380;28;20070;-79
2021/01/18 13:28:52;;;;;;;18.45;4.13;;;;;;;9.37;63.28;102121.59;5063240;28;20029;-79
2021/01/18 13:31:19;;;;;;;20.23;4.60;;;;;;;9.62;61.92;102108.50;5062168;28;20033;-80
2021/01/18 13:33:47;;;;;;;19.00;3.08;;;;;;;9.61;62.63;102119.94;5062571;28;20586;-77
2021/01/18 13:38:58;;;;;;;18.63;3.47;;;;;;;9.48;62.56;102097.84;5068672;28;20720;-84
2021/01/18 13:41:25;;;;;;;15.13;3.22;;;;;;;9.25;63.27;102110.94;5066202;28;20041;-79
2021/01/18 13:43:52;;;;;;;12.90;3.00;;;;;;;9.32;62.55;102096.88;5064925;28;20112;-78
2021/01/18 13:46:22;;;;;;;17.38;3.72;;;;;;;9.69;61.84;102094.41;5056717;28;20051;-80
2021/01/18 13:48:49;;;;;;;21.52;3.20;;;;;;;9.48;62.36;102092.56;5062560;28;20499;-81
2021/01/18 13:51:18;;;;;;;11.90;2.63;;;;;;;9.49;62.16;102098.72;5063443;28;20464;-79
2021/01/18 13:53:45;;;;;;;10.52;2.33;;;;;;;9.21;63.25;102085.38;5061902;28;20029;-78
2021/01/18 13:56:16;;;;;;;10.25;2.40;;;;;;;9.36;63.08;102080.16;5061201;28;20030;-78
2021/01/18 13:58:42;;;;;;;10.45;2.03;;;;;;;9.05;63.92;102076.44;5055612;28;20554;-80
2021/01/18 14:01:08;;;;;;;11.25;2.63;;;;;;;9.12;63.47;102078.25;5060534;28;20025;-79
2021/01/18 14:03:34;;;;;;;9.48;2.30;;;;;;;9.14;63.49;102081.78;5060940;28;20033;-77
2021/01/18 14:06:00;;;;;;;11.38;2.15;;;;;;;9.36;62.95;102076.63;5061025;28;20071;-78
2021/01/18 14:08:27;;;;;;;20.17;2.60;;;;;;;9.34;62.71;102079.25;5059251;28;20033;-80
2021/01/18 14:10:58;;;;;;;7.35;2.08;;;;;;;9.38;62.66;102083.69;5051865;28;20044;-86
2021/01/18 14:13:24;;;;;;;14.25;2.28;;;;;;;9.27;63.04;102082.75;5050532;28;20041;-81
2021/01/18 14:15:51;;;;;;;8.95;2.00;;;;;;;9.37;62.64;102089.84;5058782;28;20052;-77
2021/01/18 14:18:17;;;;;;;12.32;2.97;;;;;;;9.14;63.52;102091.50;5060201;28;20067;-80
2021/01/18 14:20:44;;;;;;;15.00;2.85;;;;;;;9.25;63.48;102080.97;5058961;28;20053;-77
2021/01/18 14:23:10;;;;;;;15.30;2.28;;;;;;;9.19;63.96;102089.75;5058711;28;20082;-76
2021/01/18 14:25:38;;;;;;;10.10;2.13;;;;;;;9.24;63.26;102080.06;5060447;28;20054;-80
2021/01/18 14:28:05;;;;;;;16.13;2.72;;;;;;;9.21;63.50;102074.78;5058960;28;20018;-80
2021/01/18 14:30:31;;;;;;;19.45;2.53;;;;;;;9.07;63.90;102079.97;5058401;28;20384;-80
2021/01/18 14:32:57;;;;;;;18.10;4.32;;;;;;;8.97;64.50;102084.34;5060082;28;20029;-79
2021/01/18 14:35:23;;;;;;;15.90;2.95;;;;;;;9.11;64.42;102068.56;5063690;28;20044;-79
2021/01/18 14:37:49;;;;;;;16.17;5.50;;;;;;;9.11;63.92;102076.50;5058753;28;20037;-78
2021/01/18 14:40:16;;;;;;;15.82;2.85;;;;;;;9.06;64.51;102065.00;5059234;28;20036;-78
2021/01/18 14:42:44;;;;;;;10.52;2.35;;;;;;;8.92;64.93;102069.31;5059706;28;20037;-79
2021/01/18 14:45:12;;;;;;;14.30;2.92;;;;;;;8.94;64.91;102073.72;5058242;28;20024;-79
2021/01/18 14:47:41;;;;;;;11.18;2.45;;;;;;;9.00;64.55;102064.97;5058757;28;20031;-79
2021/01/18 14:50:09;;;;;;;9.50;2.47;;;;;;;8.92;64.74;102059.59;5047325;28;20029;-78
2021/01/18 14:52:36;;;;;;;15.05;2.72;;;;;;;9.10;64.32;102068.53;5045228;28;20026;-78
2021/01/18 14:55:03;;;;;;;8.10;2.28;;;;;;;8.95;65.06;102059.66;5044529;28;20072;-78
2021/01/18 14:57:32;;;;;;;16.45;3.05;;;;;;;8.61;66.92;102058.53;5046385;28;20029;-79
2021/01/18 15:00:01;;;;;;;13.40;3.08;;;;;;;8.56;67.31;102056.72;5041710;28;20033;-79
2021/01/18 15:02:27;;;;;;;9.98;2.15;;;;;;;8.63;66.98;102062.94;5055382;28;20384;-77
2021/01/18 15:04:53;;;;;;;12.32;2.92;;;;;;;8.51;67.55;102057.56;5046921;28;20053;-78
2021/01/18 15:07:20;;;;;;;9.65;2.25;;;;;;;8.61;67.83;102058.53;5052320;28;20487;-81
2021/01/18 15:09:47;;;;;;;12.40;4.45;;;;;;;8.57;67.68;102057.59;5051736;28;20033;-77
2021/01/18 15:12:14;;;;;;;21.35;3.10;;;;;;;8.54;67.98;102053.19;5047626;28;20025;-78
2021/01/18 15:14:42;;;;;;;20.35;2.40;;;;;;;8.48;67.26;102046.97;5044759;28;20044;-78
2021/01/18 15:17:08;;;;;;;14.77;2.63;;;;;;;8.38;68.13;102046.84;5046902;28;20079;-79
2021/01/18 15:19:34;;;;;;;14.38;2.53;;;;;;;8.32;67.65;102048.56;5047939;28;20389;-79
2021/01/18 15:22:00;;;;;;;15.32;1.98;;;;;;;8.25;67.08;102050.28;5046978;28;20017;-79
2021/01/18 15:24:27;;;;;;;7.30;1.40;;;;;;;8.18;67.11;102049.31;5046364;28;20041;-78
2021/01/18 15:26:53;;;;;;;8.20;1.83;;;;;;;8.10;68.20;102033.41;5047327;28;20062;-80
2021/01/18 15:29:19;;;;;;;9.45;1.58;;;;;;;8.28;66.77;102039.72;5039280;28;20029;-79
2021/01/18 15:31:55;;;;;;;13.32;2.35;;;;;;;8.31;67.75;102042.41;5043966;28;20111;-80
2021/01/18 15:34:24;;;;;;;14.80;2.67;;;;;;;8.39;67.36;102043.34;5041549;28;20053;-84
2021/01/18 15:36:52;;;;;;;26.13;3.25;;;;;;;8.31;67.93;102036.22;5046842;28;20545;-78
2021/01/18 15:39:21;;;;;;;13.52;2.85;;;;;;;8.45;67.11;102036.34;5047067;28;20354;-79
2021/01/18 15:41:48;;;;;;;18.30;3.17;;;;;;;8.29;68.77;102033.59;5052714;28;20372;-79
2021/01/18 15:44:15;;;;;;;17.15;3.75;;;;;;;8.41;67.58;102031.06;5052936;28;20032;-80
2021/01/18 15:46:42;;;;;;;21.02;3.67;;;;;;;8.30;68.84;102026.53;5045066;28;20058;-78
2021/01/18 15:49:08;;;;;;;18.88;2.97;;;;;;;8.31;68.81;102036.22;5042283;28;20032;-78
2021/01/18 15:51:36;;;;;;;15.75;3.05;;;;;;;8.20;69.56;102036.13;5040131;28;20025;-79
2021/01/18 15:54:02;;;;;;;23.58;3.80;;;;;;;8.24;68.92;102035.31;5044577;28;20043;-80
2021/01/18 15:56:34;;;;;;;11.40;2.45;;;;;;;8.22;69.82;102031.75;5044658;28;20033;-78
2021/01/18 15:59:02;;;;;;;16.52;3.03;;;;;;;8.20;69.64;102038.78;5054870;28;20496;-78
2021/01/18 16:01:29;;;;;;;15.10;2.60;;;;;;;8.14;69.81;102034.34;5051808;28;20507;-83
2021/01/18 16:03:55;;;;;;;14.70;2.55;;;;;;;8.31;68.51;102039.78;5044592;28;20043;-81
2021/01/18 16:06:22;;;;;;;13.40;3.33;;;;;;;8.28;68.81;102034.44;5041859;28;20044;-79
2021/01/18 16:08:48;;;;;;;15.30;2.63;;;;;;;8.26;68.65;102039.72;5047953;28;20385;-81
2021/01/18 16:11:20;;;;;;;12.40;2.33;;;;;;;8.28;68.53;102039.72;5042300;28;20026;-79
2021/01/18 16:13:47;;;;;;;13.35;2.67;;;;;;;8.16;68.99;102036.97;5040465;28;20033;-78
2021/01/18 16:16:18;;;;;;;12.82;2.40;;;;;;;7.99;69.53;102048.28;5042650;28;20384;-78
2021/01/18 16:18:46;;;;;;;15.90;2.60;;;;;;;8.05;68.84;102047.44;5038603;28;20048;-80
2021/01/18 16:21:16;;;;;;;18.67;2.20;;;;;;;7.98;68.66;102045.63;5044214;28;20052;-80
2021/01/18 16:23:42;;;;;;;11.23;2.67;;;;;;;7.97;68.65;102042.06;5050012;28;20036;-87
2021/01/18 16:26:15;;;;;;;16.70;3.35;;;;;;;8.08;68.03;102047.47;5043298;28;20018;-80
2021/01/18 16:28:42;;;;;;;14.02;2.15;;;;;;;7.90;68.17;102056.06;5040509;28;20030;-81
2021/01/18 16:31:15;;;;;;;14.15;2.20;;;;;;;8.08;67.94;102039.56;5041230;28;20419;-80
2021/01/18 16:33:41;;;;;;;;;;;;;;;7.69;69.51;102049.72;5044864;28;20518;-79
2021/01/18 16:36:07;;;;;;;10.60;2.20;;;;;;;8.03;68.60;102046.53;5041981;28;20376;-79
2021/01/18 16:38:33;;;;;;;5.78;1.45;;;;;;;7.96;67.87;102048.22;5038916;28;20037;-79
2021/01/18 16:40:59;;;;;;;11.73;1.92;;;;;;;7.97;67.85;102041.22;5047080;28;20041;-82
2021/01/18 16:43:25;;;;;;;10.20;1.63;;;;;;;8.02;67.85;102031.56;5042538;28;20013;-82
2021/01/18 16:45:52;;;;;;;6.30;1.67;;;;;;;7.70;68.83;102043.56;5040287;28;20120;-81
2021/01/18 16:48:19;;;;;;;8.48;1.95;;;;;;;7.84;69.25;102048.09;5042521;28;20072;-78
2021/01/18 16:50:45;;;;;;;9.57;1.77;;;;;;;7.94;69.33;102044.69;5040982;28;20071;-83
2021/01/18 16:53:11;;;;;;;7.15;2.03;;;;;;;7.85;69.15;102047.22;5044617;28;20037;-78
2021/01/18 16:55:37;;;;;;;6.85;2.33;;;;;;;7.90;69.24;102043.78;5040451;28;20408;-86
2021/01/18 16:58:03;;;;;;;16.02;2.53;;;;;;;7.91;69.18;102042.00;5040779;28;20496;-80
2021/01/18 17:00:29;;;;;;;20.00;3.45;;;;;;;7.95;69.35;102046.47;5037223;28;20041;-79
2021/01/18 17:02:56;;;;;;;12.07;2.85;;;;;;;7.93;68.72;102048.22;5044068;28;20029;-78
2021/01/18 17:05:22;;;;;;;12.73;3.83;;;;;;;7.93;68.51;102045.56;5046442;28;20033;-83
2021/01/18 17:07:50;;;;;;;13.45;3.97;;;;;;;7.99;68.88;102043.00;5051192;28;20021;-79
2021/01/18 17:10:16;;;;;;;13.88;4.25;;;;;;;7.78;69.95;102039.25;5047325;28;20514;-92
2021/01/18 17:12:46;;;;;;;15.60;3.83;;;;;;;7.89;69.95;102043.78;5048129;28;20396;-81
2021/01/18 17:15:12;;;;;;;14.70;3.50;;;;;;;7.91;69.21;102042.00;5042749;28;20029;-80
2021/01/18 17:17:38;;;;;;;16.33;4.45;;;;;;;7.84;69.70;102049.00;5038948;28;20068;-82
2021/01/18 17:20:05;;;;;;;17.67;5.65;;;;;;;7.96;69.25;102036.78;5040155;28;20069;-80
2021/01/18 17:22:32;;;;;;;15.43;3.92;;;;;;;7.92;69.66;102036.78;5049066;28;20034;-79
2021/01/18 17:24:59;;;;;;;14.98;4.82;;;;;;;7.86;69.97;102036.72;5034674;28;20041;-80
2021/01/18 17:27:25;;;;;;;19.95;3.42;;;;;;;7.96;69.75;102034.16;5033701;28;20033;-81
2021/01/18 17:29:51;;;;;;;25.23;4.43;;;;;;;7.85;70.02;102039.31;5041829;28;20028;-83
2021/01/18 17:32:17;;;;;;;19.08;4.28;;;;;;;7.96;69.83;102035.03;5050424;28;20120;-79
2021/01/18 17:34:43;;;;;;;21.10;4.25;;;;;;;7.89;69.68;102034.09;5044187;28;20023;-79
2021/01/18 17:37:10;;;;;;;18.02;2.97;;;;;;;7.73;70.56;102025.13;5040311;28;20029;-79
2021/01/18 17:39:37;;;;;;;13.63;2.72;;;;;;;7.68;71.03;102026.84;5040849;28;20025;-80
2021/01/18 17:42:04;;;;;;;14.35;3.78;;;;;;;7.80;70.45;102031.38;5039408;28;20034;-88
2021/01/18 17:44:30;;;;;;;15.40;3.15;;;;;;;7.91;69.85;102034.09;5045731;23;20076;-82
2021/01/18 17:46:57;;;;;;;10.45;3.67;;;;;;;7.94;69.73;102034.16;5027237;28;20532;-83
2021/01/18 17:49:23;;;;;;;17.80;3.97;;;;;;;7.96;69.49;102020.97;5031187;28;20029;-86
2021/01/18 17:51:49;;;;;;;11.60;3.10;;;;;;;7.99;69.53;102024.50;5028035;28;20033;-84
2021/01/18 17:54:17;;;;;;;18.50;3.83;;;;;;;7.92;70.02;102022.69;5028823;28;20025;-83
2021/01/18 17:56:43;;;;;;;20.92;4.32;;;;;;;7.93;69.76;102017.41;5031799;28;20037;-81
2021/01/18 17:59:10;;;;;;;20.30;5.80;;;;;;;7.86;69.92;102012.06;5029785;28;20088;-81
2021/01/18 18:01:40;;;;;;;21.05;6.82;;;;;;;7.82;70.24;102007.63;5028658;28;20033;-83
2021/01/18 18:04:07;;;;;;;23.15;8.18;;;;;;;7.60;70.85;102007.38;5027804;28;20059;-84
2021/01/18 18:06:33;;;;;;;20.52;7.35;;;;;;;7.55;70.90;102014.38;5030232;28;20548;-80
2021/01/18 18:09:00;;;;;;;27.88;8.18;;;;;;;7.39;71.72;102008.94;5031408;28;20037;-80
2021/01/18 18:11:27;;;;;;;22.98;7.82;;;;;;;7.40;71.68;102000.16;5032840;28;20029;-82
2021/01/18 18:13:54;;;;;;;24.88;8.60;;;;;;;7.43;71.45;102004.56;5031268;28;20068;-82
2021/01/18 18:16:23;;;;;;;22.08;8.57;;;;;;;7.53;71.13;102005.56;5031182;28;20022;-82
2021/01/18 18:18:52;;;;;;;20.75;8.43;;;;;;;7.42;71.86;102000.16;5029533;28;20037;-86
2021/01/18 18:21:22;;;;;;;47.55;19.10;;;;;;;7.51;71.63;102010.81;5033128;28;20025;-79
2021/01/18 18:23:49;;;;;;;26.88;10.15;;;;;;;7.52;71.39;101998.53;5030818;28;20538;-80
2021/01/18 18:26:16;;;;;;;20.90;8.70;;;;;;;7.52;71.50;101993.25;5052500;28;20103;-87
2021/01/18 18:28:42;;;;;;;23.13;8.38;;;;;;;7.53;71.80;101995.03;5029795;28;20029;-80
2021/01/18 18:31:09;;;;;;;23.88;8.18;;;;;;;7.66;71.21;101986.34;5029000;28;20033;-85
2021/01/18 18:33:35;;;;;;;22.58;8.02;;;;;;;7.57;71.79;101981.00;5034196;28;20037;-79
2021/01/18 18:36:09;;;;;;;24.85;8.35;;;;;;;7.54;71.62;101980.94;5034495;28;20065;-80
2021/01/18 18:38:36;;;;;;;22.75;7.18;;;;;;;7.57;71.47;101978.34;5036044;28;20071;-84
2021/01/18 18:41:07;;;;;;;23.10;7.72;;;;;;;7.56;71.61;101973.94;5035103;28;20476;-81
2021/01/18 18:43:34;;;;;;;16.33;6.33;;;;;;;7.69;71.41;101970.56;5036845;28;20028;-81
2021/01/18 18:46:00;;;;;;;18.73;6.60;;;;;;;7.73;71.10;101976.75;5033804;28;20299;-85
2021/01/18 18:48:26;;;;;;;20.73;6.80;;;;;;;7.66;71.73;101965.25;5035147;28;20026;-80
2021/01/18 18:50:53;;;;;;;22.42;6.63;;;;;;;7.80;71.21;101961.88;5035908;28;20025;-79
2021/01/18 18:53:19;;;;;;;21.25;7.20;;;;;;;7.75;71.07;101968.00;5036337;28;20083;-80
2021/01/18 18:55:45;;;;;;;16.48;6.82;;;;;;;7.91;70.49;101968.13;5037777;28;20095;-80
2021/01/18 18:58:12;;;;;;;18.50;6.60;;;;;;;7.83;70.73;101975.09;5037718;28;20103;-79
2021/01/18 19:00:38;;;;;;;16.20;6.82;;;;;;;7.75;70.74;101968.00;5037385;28;20034;-83
2021/01/18 19:03:05;;;;;;;19.48;8.02;;;;;;;7.83;70.65;101968.06;5035989;28;20033;-80
2021/01/18 19:05:31;;;;;;;16.45;8.55;;;;;;;7.81;70.98;101963.63;5033731;28;20026;-82
2021/01/18 19:07:58;;;;;;;31.63;10.38;;;;;;;7.72;71.28;101959.16;5036743;28;20037;-81
2021/01/18 19:10:24;;;;;;;34.03;17.10;;;;;;;7.66;71.43;101953.81;5037857;28;20021;-81
2021/01/18 19:12:50;;;;;;;24.40;10.73;;;;;;;7.55;71.44;101951.06;5039802;28;20080;-81
2021/01/18 19:15:16;;;;;;;23.45;10.18;;;;;;;7.40;72.01;101949.16;5064968;22;20040;-84
2021/01/18 19:17:48;;;;;;;26.30;9.50;;;;;;;7.61;70.98;101953.78;5055651;28;20064;-82
2021/01/18 19:20:15;;;;;;;19.00;9.52;;;;;;;7.76;71.09;101943.38;5046625;28;20056;-82
2021/01/18 19:22:42;;;;;;;20.83;9.40;;;;;;;7.61;71.11;101949.41;5055818;28;20075;-82
2021/01/18 19:25:11;;;;;;;25.58;9.88;;;;;;;7.61;71.57;101938.84;5058227;28;20036;-82
2021/01/18 19:27:39;;;;;;;23.30;10.80;;;;;;;7.63;70.80;101938.84;5055507;28;20559;-82
2021/01/18 19:30:09;;;;;;;25.35;10.05;;;;;;;7.55;71.40;101941.41;5056403;28;20028;-82
2021/01/18 19:32:35;;;;;;;27.25;9.82;;;;;;;7.37;71.92;101941.22;5058851;28;20021;-81
2021/01/18 19:35:03;;;;;;;19.30;8.85;;;;;;;7.44;71.42;101933.38;5058060;28;20025;-81
2021/01/18 19:37:29;;;;;;;16.30;9.25;;;;;;;7.45;71.25;101935.16;5055977;28;20543;-81
2021/01/18 19:39:56;;;;;;;22.67;9.25;;;;;;;7.50;71.15;101929.03;5051244;28;20040;-81
2021/01/18 19:42:22;;;;;;;25.15;11.05;;;;;;;7.33;71.26;101919.22;5052917;28;20421;-81
2021/01/18 19:44:48;;;;;;;28.23;11.65;;;;;;;7.24;71.63;101925.28;5054045;28;20524;-82
2021/01/18 19:47:14;;;;;;;23.05;10.73;;;;;;;7.40;70.86;101930.69;5056533;28;20515;-82
2021/01/18 19:49:42;;;;;;;20.35;10.60;;;;;;;7.30;71.31;101932.34;5054451;28;20029;-82
2021/01/18 19:52:14;;;;;;;22.42;10.82;;;;;;;7.33;71.17;101935.03;5054491;28;20419;-83
2021/01/18 19:54:42;;;;;;;23.08;11.82;;;;;;;7.29;71.50;101934.09;5053089;28;20029;-82
2021/01/18 19:57:10;;;;;;;24.83;12.38;;;;;;;7.48;70.70;101931.66;5056182;28;20020;-82
2021/01/18 19:59:37;;;;;;;22.70;11.20;;;;;;;7.40;71.39;101928.97;5053893;28;20040;-85
2021/01/18 20:02:04;;;;;;;27.67;12.13;;;;;;;7.41;71.44;101925.47;5054911;28;20036;-82
2021/01/18 20:04:33;;;;;;;20.65;11.45;;;;;;;7.43;71.45;101921.06;5054277;28;20033;-81
2021/01/18 20:07:00;;;;;;;26.90;12.27;;;;;;;7.33;71.67;101924.47;5055922;28;20107;-82
2021/01/18 20:09:27;;;;;;;20.92;12.20;;;;;;;7.51;71.12;101922.91;5054697;28;20407;-82
2021/01/18 20:11:53;;;;;;;24.60;11.75;;;;;;;7.37;71.49;101922.78;5054250;28;20031;-82
2021/01/18 20:14:19;;;;;;;17.95;10.65;;;;;;;7.49;70.71;101914.09;5054673;28;20024;-83
2021/01/18 20:16:45;;;;;;;24.35;11.20;;;;;;;7.53;70.86;101916.78;5052014;28;20056;-83
2021/01/18 20:19:13;;;;;;;22.60;11.65;;;;;;;7.57;70.92;101915.06;5054019;28;20103;-82
2021/01/18 20:21:39;;;;;;;23.70;11.30;;;;;;;7.43;71.54;101907.88;5053704;28;20057;-80
2021/01/18 20:24:07;;;;;;;25.60;12.10;;;;;;;7.51;71.20;101899.16;5054848;28;20120;-83